sensor_id;sensor_type;location;lat;lon;timestamp;pressure;altitude;pressure_sealevel;temperature;humidity
43436;BME280;36399;51.444;-2.018;2023-03-25T00:01:05;99101.06;;;6.23;100.00
43436;BME280;36399;51.444;-2.018;2023-03-25T00:03:35;99079.50;;;6.38;100.00
43436;BME280;36399;51.444;-2.018;2023-03-25T00:06:07;99099.53;;;6.48;100.00
43436;BME280;36399;51.444;-2.018;2023-03-25T00:08:36;99083.94;;;6.54;100.00
43436;BME280;36399;51.444;-2.018;2023-03-25T00:11:03;99097.00;;;6.57;100.00
43436;BME280;36399;51.444;-2.018;2023-03-25T00:13:30;99089.25;;;6.68;100.00
43436;BME280;36399;51.444;-2.018;2023-03-25T00:15:59;99088.38;;;6.70;100.00
43436;BME280;36399;51.444;-2.018;2023-03-25T00:18:28;99090.13;;;6.68;100.00
43436;BME280;36399;51.444;-2.018;2023-03-25T00:20:54;99093.53;;;6.61;100.00
43436;BME280;36399;51.444;-2.018;2023-03-25T00:23:21;99097.94;;;6.68;100.00
43436;BME280;36399;51.444;-2.018;2023-03-25T00:25:48;99087.50;;;6.67;100.00
43436;BME280;36399;51.444;-2.018;2023-03-25T00:28:15;99093.59;;;6.67;100.00
43436;BME280;36399;51.444;-2.018;2023-03-25T00:30:43;99103.25;;;6.79;100.00
43436;BME280;36399;51.444;-2.018;2023-03-25T00:33:10;99096.34;;;6.88;100.00
43436;BME280;36399;51.444;-2.018;2023-03-25T00:35:39;99085.94;;;6.96;100.00
43436;BME280;36399;51.444;-2.018;2023-03-25T00:38:10;99092.03;;;6.96;100.00
43436;BME280;36399;51.444;-2.018;2023-03-25T00:40:36;99095.56;;;7.05;100.00
43436;BME280;36399;51.444;-2.018;2023-03-25T00:43:04;99100.78;;;7.05;100.00
43436;BME280;36399;51.444;-2.018;2023-03-25T00:45:32;99100.78;;;7.05;100.00
43436;BME280;36399;51.444;-2.018;2023-03-25T00:47:58;99100.78;;;7.06;100.00
43436;BME280;36399;51.444;-2.018;2023-03-25T00:50:25;99094.69;;;7.06;100.00
43436;BME280;36399;51.444;-2.018;2023-03-25T00:52:51;99102.56;;;7.15;100.00
43436;BME280;36399;51.444;-2.018;2023-03-25T00:55:22;99106.03;;;7.11;100.00
43436;BME280;36399;51.444;-2.018;2023-03-25T00:57:48;99099.03;;;7.07;100.00
43436;BME280;36399;51.444;-2.018;2023-03-25T01:00:16;99116.47;;;7.11;100.00
43436;BME280;36399;51.444;-2.018;2023-03-25T01:02:43;99106.88;;;7.10;100.00
43436;BME280;36399;51.444;-2.018;2023-03-25T01:05:10;99105.97;;;7.03;100.00
43436;BME280;36399;51.444;-2.018;2023-03-25T01:07:37;99112.94;;;7.00;100.00
43436;BME280;36399;51.444;-2.018;2023-03-25T01:10:04;99110.28;;;6.90;100.00
43436;BME280;36399;51.444;-2.018;2023-03-25T01:12:30;99115.44;;;6.81;100.00
43436;BME280;36399;51.444;-2.018;2023-03-25T01:14:57;99116.22;;;6.71;100.00
43436;BME280;36399;51.444;-2.018;2023-03-25T01:17:23;99118.78;;;6.65;100.00
43436;BME280;36399;51.444;-2.018;2023-03-25T01:19:49;99123.97;;;6.62;100.00
43436;BME280;36399;51.444;-2.018;2023-03-25T01:22:16;99120.44;;;6.55;100.00
43436;BME280;36399;51.444;-2.018;2023-03-25T01:24:45;99116.94;;;6.49;100.00
43436;BME280;36399;51.444;-2.018;2023-03-25T01:27:11;99109.13;;;6.52;100.00
43436;BME280;36399;51.444;-2.018;2023-03-25T01:29:37;99117.78;;;6.48;100.00
43436;BME280;36399;51.444;-2.018;2023-03-25T01:32:05;99097.84;;;6.53;100.00
43436;BME280;36399;51.444;-2.018;2023-03-25T01:34:31;99111.69;;;6.46;100.00
43436;BME280;36399;51.444;-2.018;2023-03-25T01:36:58;99093.44;;;6.43;100.00
43436;BME280;36399;51.444;-2.018;2023-03-25T01:39:24;99107.28;;;6.36;100.00
43436;BME280;36399;51.444;-2.018;2023-03-25T01:41:51;99116.84;;;6.37;100.00
43436;BME280;36399;51.444;-2.018;2023-03-25T01:46:47;99116.00;;;6.41;100.00
43436;BME280;36399;51.444;-2.018;2023-03-25T01:49:21;99125.59;;;6.43;100.00
43436;BME280;36399;51.444;-2.018;2023-03-25T01:52:02;99106.53;;;6.52;100.00
43436;BME280;36399;51.444;-2.018;2023-03-25T01:54:29;99143.03;;;6.55;100.00
43436;BME280;36399;51.444;-2.018;2023-03-25T01:56:55;99130.88;;;6.55;100.00
43436;BME280;36399;51.444;-2.018;2023-03-25T01:59:24;99128.31;;;6.60;100.00
43436;BME280;36399;51.444;-2.018;2023-03-25T02:01:53;99136.16;;;6.66;100.00
43436;BME280;36399;51.444;-2.018;2023-03-25T02:04:35;99128.38;;;6.71;100.00
43436;BME280;36399;51.444;-2.018;2023-03-25T02:07:04;99126.72;;;6.80;100.00
43436;BME280;36399;51.444;-2.018;2023-03-25T02:09:35;99125.09;;;6.97;100.00
43436;BME280;36399;51.444;-2.018;2023-03-25T02:12:02;99140.78;;;7.07;100.00
43436;BME280;36399;51.444;-2.018;2023-03-25T02:14:30;99126.91;;;7.14;100.00
43436;BME280;36399;51.444;-2.018;2023-03-25T02:28:33;99163.66;;;7.56;100.00
43436;BME280;36399;51.444;-2.018;2023-03-25T02:36:38;99139.34;;;7.79;100.00
43436;BME280;36399;51.444;-2.018;2023-03-25T02:39:38;99143.69;;;7.68;100.00
43436;BME280;36399;51.444;-2.018;2023-03-25T02:45:26;99137.56;;;7.61;100.00
43436;BME280;36399;51.444;-2.018;2023-03-25T02:48:07;99120.16;;;7.65;100.00
43436;BME280;36399;51.444;-2.018;2023-03-25T02:50:42;99163.72;;;7.78;100.00
43436;BME280;36399;51.444;-2.018;2023-03-25T02:53:16;99134.13;;;7.76;100.00
43436;BME280;36399;51.444;-2.018;2023-03-25T02:55:45;99129.78;;;7.79;100.00
43436;BME280;36399;51.444;-2.018;2023-03-25T02:58:16;99137.66;;;7.81;100.00
43436;BME280;36399;51.444;-2.018;2023-03-25T03:00:43;99143.69;;;7.75;100.00
43436;BME280;36399;51.444;-2.018;2023-03-25T03:03:10;99154.13;;;7.65;100.00
43436;BME280;36399;51.444;-2.018;2023-03-25T03:05:40;99151.50;;;7.65;100.00
43436;BME280;36399;51.444;-2.018;2023-03-25T03:19:35;99155.97;;;7.96;100.00
43436;BME280;36399;51.444;-2.018;2023-03-25T03:25:33;99156.00;;;8.10;100.00
43436;BME280;36399;51.444;-2.018;2023-03-25T03:28:26;99170.81;;;8.12;100.00
43436;BME280;36399;51.444;-2.018;2023-03-25T03:31:03;99162.97;;;8.12;100.00
43436;BME280;36399;51.444;-2.018;2023-03-25T03:33:53;99158.59;;;8.05;100.00
43436;BME280;36399;51.444;-2.018;2023-03-25T03:36:28;99181.25;;;8.03;100.00
43436;BME280;36399;51.444;-2.018;2023-03-25T03:39:27;99154.25;;;8.04;100.00
43436;BME280;36399;51.444;-2.018;2023-03-25T03:42:00;99163.84;;;8.11;100.00
43436;BME280;36399;51.444;-2.018;2023-03-25T03:44:32;99149.03;;;8.10;100.00
43436;BME280;36399;51.444;-2.018;2023-03-25T03:47:12;99174.28;;;8.16;100.00
43436;BME280;36399;51.444;-2.018;2023-03-25T03:49:45;99156.88;;;8.19;100.00
43436;BME280;36399;51.444;-2.018;2023-03-25T03:52:21;99159.50;;;8.22;100.00
43436;BME280;36399;51.444;-2.018;2023-03-25T03:55:00;99177.78;;;8.26;100.00
43436;BME280;36399;51.444;-2.018;2023-03-25T04:00:30;99167.34;;;8.26;100.00
43436;BME280;36399;51.444;-2.018;2023-03-25T04:05:34;99178.66;;;8.24;100.00
43436;BME280;36399;51.444;-2.018;2023-03-25T04:08:17;99180.41;;;8.22;100.00
43436;BME280;36399;51.444;-2.018;2023-03-25T04:10:55;99170.81;;;8.24;100.00
43436;BME280;36399;51.444;-2.018;2023-03-25T04:13:27;99200.50;;;8.33;100.00
43436;BME280;36399;51.444;-2.018;2023-03-25T04:15:59;99183.03;;;8.27;100.00
43436;BME280;36399;51.444;-2.018;2023-03-25T04:18:28;99182.16;;;8.23;100.00
43436;BME280;36399;51.444;-2.018;2023-03-25T04:20:59;99200.44;;;8.20;100.00
43436;BME280;36399;51.444;-2.018;2023-03-25T04:23:26;99190.88;;;8.27;100.00
43436;BME280;36399;51.444;-2.018;2023-03-25T04:25:55;99203.94;;;8.22;100.00
43436;BME280;36399;51.444;-2.018;2023-03-25T04:28:22;99203.94;;;8.26;100.00
43436;BME280;36399;51.444;-2.018;2023-03-25T04:30:50;99212.66;;;8.21;100.00
43436;BME280;36399;51.444;-2.018;2023-03-25T04:38:33;99221.38;;;8.27;100.00
43436;BME280;36399;51.444;-2.018;2023-03-25T04:43:35;99236.19;;;8.32;100.00
43436;BME280;36399;51.444;-2.018;2023-03-25T04:46:05;99222.25;;;8.24;100.00
43436;BME280;36399;51.444;-2.018;2023-03-25T04:48:33;99215.25;;;8.21;100.00
43436;BME280;36399;51.444;-2.018;2023-03-25T04:56:15;99230.06;;;8.22;100.00
43436;BME280;36399;51.444;-2.018;2023-03-25T05:01:23;99234.44;;;8.19;100.00
43436;BME280;36399;51.444;-2.018;2023-03-25T05:11:48;99244.13;;;8.34;100.00
43436;BME280;36399;51.444;-2.018;2023-03-25T05:25:18;99224.81;;;8.12;100.00
43436;BME280;36399;51.444;-2.018;2023-03-25T05:36:14;99234.41;;;8.05;100.00
43436;BME280;36399;51.444;-2.018;2023-03-25T05:41:20;99232.69;;;8.22;100.00
43436;BME280;36399;51.444;-2.018;2023-03-25T05:44:02;99257.97;;;8.27;100.00
43436;BME280;36399;51.444;-2.018;2023-03-25T05:54:29;99270.13;;;8.09;100.00
43436;BME280;36399;51.444;-2.018;2023-03-25T05:59:37;99299.66;;;7.87;100.00
43436;BME280;36399;51.444;-2.018;2023-03-25T06:02:05;99282.09;;;7.62;100.00
43436;BME280;36399;51.444;-2.018;2023-03-25T06:04:33;99311.56;;;7.42;100.00
43436;BME280;36399;51.444;-2.018;2023-03-25T06:07:06;99318.38;;;7.25;100.00
43436;BME280;36399;51.444;-2.018;2023-03-25T06:09:48;99328.75;;;7.16;100.00
43436;BME280;36399;51.444;-2.018;2023-03-25T06:12:16;99325.22;;;7.11;100.00
43436;BME280;36399;51.444;-2.018;2023-03-25T06:14:42;99330.41;;;7.06;100.00
43436;BME280;36399;51.444;-2.018;2023-03-25T06:17:14;99345.19;;;7.06;100.00
43436;BME280;36399;51.444;-2.018;2023-03-25T06:19:41;99311.25;;;7.03;100.00
43436;BME280;36399;51.444;-2.018;2023-03-25T06:22:09;99343.41;;;7.02;100.00
43436;BME280;36399;51.444;-2.018;2023-03-25T06:24:37;99336.44;;;6.99;100.00
43436;BME280;36399;51.444;-2.018;2023-03-25T06:27:05;99323.38;;;6.97;100.00
43436;BME280;36399;51.444;-2.018;2023-03-25T06:29:37;99345.91;;;6.89;100.00
43436;BME280;36399;51.444;-2.018;2023-03-25T06:32:04;99342.53;;;7.00;100.00
43436;BME280;36399;51.444;-2.018;2023-03-25T06:34:30;99349.53;;;7.04;100.00
43436;BME280;36399;51.444;-2.018;2023-03-25T06:37:00;99386.09;;;7.07;100.00
43436;BME280;36399;51.444;-2.018;2023-03-25T06:39:28;99373.97;;;7.15;100.00
43436;BME280;36399;51.444;-2.018;2023-03-25T06:41:58;99377.53;;;7.24;100.00
43436;BME280;36399;51.444;-2.018;2023-03-25T06:44:25;99365.38;;;7.25;100.00
43436;BME280;36399;51.444;-2.018;2023-03-25T06:46:51;99370.75;;;7.40;100.00
43436;BME280;36399;51.444;-2.018;2023-03-25T06:49:17;99384.69;;;7.45;100.00
43436;BME280;36399;51.444;-2.018;2023-03-25T06:51:43;99389.09;;;7.49;100.00
43436;BME280;36399;51.444;-2.018;2023-03-25T06:54:10;99384.75;;;7.53;100.00
43436;BME280;36399;51.444;-2.018;2023-03-25T06:56:36;99406.56;;;7.61;100.00
43436;BME280;36399;51.444;-2.018;2023-03-25T06:59:02;99412.53;;;7.43;100.00
43436;BME280;36399;51.444;-2.018;2023-03-25T07:01:28;99405.56;;;7.42;100.00
43436;BME280;36399;51.444;-2.018;2023-03-25T07:03:54;99413.38;;;7.41;100.00
43436;BME280;36399;51.444;-2.018;2023-03-25T07:06:21;99403.00;;;7.48;100.00
43436;BME280;36399;51.444;-2.018;2023-03-25T07:08:47;99421.31;;;7.51;100.00
43436;BME280;36399;51.444;-2.018;2023-03-25T07:11:15;99423.91;;;7.51;100.00
43436;BME280;36399;51.444;-2.018;2023-03-25T07:13:42;99428.28;;;7.52;100.00
43436;BME280;36399;51.444;-2.018;2023-03-25T07:16:08;99429.13;;;7.48;100.00
43436;BME280;36399;51.444;-2.018;2023-03-25T07:18:34;99434.34;;;7.48;100.00
43436;BME280;36399;51.444;-2.018;2023-03-25T07:21:01;99444.81;;;7.53;100.00
43436;BME280;36399;51.444;-2.018;2023-03-25T07:23:27;99432.66;;;7.55;100.00
43436;BME280;36399;51.444;-2.018;2023-03-25T07:25:52;99445.75;;;7.59;100.00
43436;BME280;36399;51.444;-2.018;2023-03-25T07:28:18;99447.53;;;7.64;100.00
43436;BME280;36399;51.444;-2.018;2023-03-25T07:30:44;99445.81;;;7.69;100.00
43436;BME280;36399;51.444;-2.018;2023-03-25T07:33:10;99444.16;;;7.80;100.00
43436;BME280;36399;51.444;-2.018;2023-03-25T07:35:36;99452.06;;;7.84;100.00
43436;BME280;36399;51.444;-2.018;2023-03-25T07:38:02;99472.13;;;7.87;100.00
43436;BME280;36399;51.444;-2.018;2023-03-25T07:40:28;99461.69;;;7.93;100.00
43436;BME280;36399;51.444;-2.018;2023-03-25T07:42:54;99458.25;;;8.00;100.00
43436;BME280;36399;51.444;-2.018;2023-03-25T07:45:20;99454.88;;;8.15;100.00
43436;BME280;36399;51.444;-2.018;2023-03-25T07:47:46;99458.38;;;8.15;100.00
43436;BME280;36399;51.444;-2.018;2023-03-25T07:50:16;99458.41;;;8.21;100.00
43436;BME280;36399;51.444;-2.018;2023-03-25T07:52:43;99450.56;;;8.21;100.00
43436;BME280;36399;51.444;-2.018;2023-03-25T07:55:09;99473.25;;;8.30;100.00
43436;BME280;36399;51.444;-2.018;2023-03-25T07:57:35;99481.22;;;8.38;100.00
43436;BME280;36399;51.444;-2.018;2023-03-25T08:00:01;99470.81;;;8.50;100.00
43436;BME280;36399;51.444;-2.018;2023-03-25T08:02:27;99483.03;;;8.54;100.00
43436;BME280;36399;51.444;-2.018;2023-03-25T08:04:53;99471.69;;;8.52;100.00
43436;BME280;36399;51.444;-2.018;2023-03-25T08:07:19;99475.19;;;8.49;100.00
43436;BME280;36399;51.444;-2.018;2023-03-25T08:09:46;99487.31;;;8.40;100.00
43436;BME280;36399;51.444;-2.018;2023-03-25T08:12:12;99475.97;;;8.38;100.00
43436;BME280;36399;51.444;-2.018;2023-03-25T08:14:38;99483.00;;;8.46;100.00
43436;BME280;36399;51.444;-2.018;2023-03-25T08:17:04;99487.38;;;8.49;100.00
43436;BME280;36399;51.444;-2.018;2023-03-25T08:19:31;99479.56;;;8.55;100.00
43436;BME280;36399;51.444;-2.018;2023-03-25T08:21:57;99487.38;;;8.46;100.00
43436;BME280;36399;51.444;-2.018;2023-03-25T08:24:23;99490.84;;;8.45;100.00
43436;BME280;36399;51.444;-2.018;2023-03-25T08:26:52;99501.34;;;8.54;100.00
43436;BME280;36399;51.444;-2.018;2023-03-25T08:29:19;99509.22;;;8.60;100.00
43436;BME280;36399;51.444;-2.018;2023-03-25T08:31:45;99522.25;;;8.49;100.00
43436;BME280;36399;51.444;-2.018;2023-03-25T08:34:12;99519.56;;;8.39;100.00
43436;BME280;36399;51.444;-2.018;2023-03-25T08:36:38;99533.50;;;8.35;100.00
43436;BME280;36399;51.444;-2.018;2023-03-25T08:39:05;99548.22;;;8.28;100.00
43436;BME280;36399;51.444;-2.018;2023-03-25T08:41:36;99555.22;;;8.32;100.00
43436;BME280;36399;51.444;-2.018;2023-03-25T08:44:06;99563.00;;;8.26;100.00
43436;BME280;36399;51.444;-2.018;2023-03-25T08:46:32;99555.16;;;8.24;100.00
43436;BME280;36399;51.444;-2.018;2023-03-25T08:48:58;99571.72;;;8.27;100.00
43436;BME280;36399;51.444;-2.018;2023-03-25T08:51:24;99583.06;;;8.27;100.00
43436;BME280;36399;51.444;-2.018;2023-03-25T08:53:50;99569.94;;;8.19;100.00
43436;BME280;36399;51.444;-2.018;2023-03-25T08:56:16;99555.91;;;8.08;100.00
43436;BME280;36399;51.444;-2.018;2023-03-25T08:58:41;99582.88;;;8.03;100.00
43436;BME280;36399;51.444;-2.018;2023-03-25T09:01:07;99566.34;;;8.05;100.00
43436;BME280;36399;51.444;-2.018;2023-03-25T09:03:33;99594.22;;;8.06;100.00
43436;BME280;36399;51.444;-2.018;2023-03-25T09:06:03;99590.78;;;8.10;100.00
43436;BME280;36399;51.444;-2.018;2023-03-25T09:08:30;99592.56;;;8.17;100.00
43436;BME280;36399;51.444;-2.018;2023-03-25T09:10:57;99590.91;;;8.29;100.00
43436;BME280;36399;51.444;-2.018;2023-03-25T09:13:24;99605.00;;;8.40;100.00
43436;BME280;36399;51.444;-2.018;2023-03-25T09:15:50;99609.53;;;8.61;100.00
43436;BME280;36399;51.444;-2.018;2023-03-25T09:18:16;99606.09;;;8.72;100.00
43436;BME280;36399;51.444;-2.018;2023-03-25T09:20:43;99608.78;;;8.80;100.00
43436;BME280;36399;51.444;-2.018;2023-03-25T09:23:14;99597.53;;;8.93;100.00
43436;BME280;36399;51.444;-2.018;2023-03-25T09:25:40;99608.97;;;9.10;100.00
43436;BME280;36399;51.444;-2.018;2023-03-25T09:28:07;99605.53;;;9.24;100.00
43436;BME280;36399;51.444;-2.018;2023-03-25T09:30:33;99597.69;;;9.33;100.00
43436;BME280;36399;51.444;-2.018;2023-03-25T09:33:00;99600.38;;;9.40;100.00
43436;BME280;36399;51.444;-2.018;2023-03-25T09:35:26;99610.78;;;9.31;100.00
43436;BME280;36399;51.444;-2.018;2023-03-25T09:37:52;99609.94;;;9.34;100.00
43436;BME280;36399;51.444;-2.018;2023-03-25T09:40:19;99624.78;;;9.36;100.00
43436;BME280;36399;51.444;-2.018;2023-03-25T09:42:59;99617.88;;;9.47;100.00
43436;BME280;36399;51.444;-2.018;2023-03-25T09:45:43;99624.03;;;9.66;100.00
43436;BME280;36399;51.444;-2.018;2023-03-25T09:48:32;99626.66;;;9.68;100.00
43436;BME280;36399;51.444;-2.018;2023-03-25T09:51:05;99633.69;;;9.84;100.00
43436;BME280;36399;51.444;-2.018;2023-03-25T09:54:04;99641.59;;;9.90;100.00
43436;BME280;36399;51.444;-2.018;2023-03-25T09:56:36;99647.72;;;9.95;100.00
43436;BME280;36399;51.444;-2.018;2023-03-25T09:59:06;99639.88;;;10.03;100.00
43436;BME280;36399;51.444;-2.018;2023-03-25T10:01:44;99656.53;;;10.25;100.00
43436;BME280;36399;51.444;-2.018;2023-03-25T10:08:19;99672.31;;;10.46;100.00
43436;BME280;36399;51.444;-2.018;2023-03-25T10:13:44;99684.56;;;10.47;100.00
43436;BME280;36399;51.444;-2.018;2023-03-25T10:21:42;99666.19;;;10.52;100.00
43436;BME280;36399;51.444;-2.018;2023-03-25T10:24:24;99678.44;;;10.51;100.00
43436;BME280;36399;51.444;-2.018;2023-03-25T10:27:09;99689.81;;;10.65;100.00
43436;BME280;36399;51.444;-2.018;2023-03-25T10:29:44;99682.81;;;10.60;100.00
43436;BME280;36399;51.444;-2.018;2023-03-25T10:32:19;99700.31;;;10.56;100.00
43436;BME280;36399;51.444;-2.018;2023-03-25T10:34:50;99703.81;;;10.86;100.00
43436;BME280;36399;51.444;-2.018;2023-03-25T10:37:24;99695.06;;;10.84;100.00
43436;BME280;36399;51.444;-2.018;2023-03-25T10:39:56;99706.44;;;10.81;100.00
43436;BME280;36399;51.444;-2.018;2023-03-25T10:42:26;99700.31;;;10.78;100.00
43436;BME280;36399;51.444;-2.018;2023-03-25T10:44:53;99707.31;;;10.88;100.00
43436;BME280;36399;51.444;-2.018;2023-03-25T10:47:24;99700.31;;;10.93;100.00
43436;BME280;36399;51.444;-2.018;2023-03-25T10:49:52;99719.59;;;10.93;100.00
43436;BME280;36399;51.444;-2.018;2023-03-25T10:52:19;99710.81;;;10.96;100.00
43436;BME280;36399;51.444;-2.018;2023-03-25T10:54:48;99709.03;;;10.92;100.00
43436;BME280;36399;51.444;-2.018;2023-03-25T10:57:24;99709.06;;;10.73;100.00
43436;BME280;36399;51.444;-2.018;2023-03-25T11:00:03;99698.56;;;10.61;100.00
43436;BME280;36399;51.444;-2.018;2023-03-25T11:02:32;99724.81;;;10.46;100.00
43436;BME280;36399;51.444;-2.018;2023-03-25T11:05:03;99733.28;;;9.78;100.00
43436;BME280;36399;51.444;-2.018;2023-03-25T11:07:36;99745.34;;;9.44;100.00
43436;BME280;36399;51.444;-2.018;2023-03-25T11:10:10;99754.78;;;9.22;100.00
43436;BME280;36399;51.444;-2.018;2023-03-25T11:12:42;99754.81;;;9.28;100.00
43436;BME280;36399;51.444;-2.018;2023-03-25T11:15:15;99764.69;;;9.70;100.00
43436;BME280;36399;51.444;-2.018;2023-03-25T11:17:43;99765.75;;;10.09;100.00
43436;BME280;36399;51.444;-2.018;2023-03-25T11:20:18;99754.50;;;10.36;100.00
43436;BME280;36399;51.444;-2.018;2023-03-25T11:22:49;99749.31;;;10.83;100.00
43436;BME280;36399;51.444;-2.018;2023-03-25T11:25:31;99741.44;;;11.09;100.00
43436;BME280;36399;51.444;-2.018;2023-03-25T11:28:02;99742.34;;;10.99;100.00
43436;BME280;36399;51.444;-2.018;2023-03-25T11:30:29;99744.06;;;10.85;100.00
43436;BME280;36399;51.444;-2.018;2023-03-25T11:33:04;99752.84;;;10.99;100.00
43436;BME280;36399;51.444;-2.018;2023-03-25T11:35:35;99752.84;;;11.00;100.00
43436;BME280;36399;51.444;-2.018;2023-03-25T11:38:13;99728.31;;;10.79;100.00
43436;BME280;36399;51.444;-2.018;2023-03-25T11:40:51;99740.59;;;10.95;100.00
43436;BME280;36399;51.444;-2.018;2023-03-25T11:43:23;99744.06;;;10.92;100.00
43436;BME280;36399;51.444;-2.018;2023-03-25T11:45:51;99746.72;;;10.98;100.00
43436;BME280;36399;51.444;-2.018;2023-03-25T11:48:30;99725.63;;;11.44;100.00
43436;BME280;36399;51.444;-2.018;2023-03-25T11:51:00;99722.56;;;12.52;100.00
43436;BME280;36399;51.444;-2.018;2023-03-25T11:53:30;99717.38;;;12.37;100.00
43436;BME280;36399;51.444;-2.018;2023-03-25T11:56:19;99726.91;;;12.58;100.00
43436;BME280;36399;51.444;-2.018;2023-03-25T11:58:47;99725.31;;;12.31;100.00
43436;BME280;36399;51.444;-2.018;2023-03-25T12:01:27;99719.91;;;12.48;100.00
43436;BME280;36399;51.444;-2.018;2023-03-25T12:04:06;99716.69;;;13.25;100.00
43436;BME280;36399;51.444;-2.018;2023-03-25T12:06:33;99714.44;;;13.73;100.00
43436;BME280;36399;51.444;-2.018;2023-03-25T12:08:59;99699.00;;;14.12;100.00
43436;BME280;36399;51.444;-2.018;2023-03-25T12:11:43;99725.47;;;13.27;100.00
43436;BME280;36399;51.444;-2.018;2023-03-25T12:14:33;99707.09;;;14.61;100.00
43436;BME280;36399;51.444;-2.018;2023-03-25T12:22:47;99710.81;;;14.48;100.00
43436;BME280;36399;51.444;-2.018;2023-03-25T12:25:31;99709.59;;;15.23;100.00
43436;BME280;36399;51.444;-2.018;2023-03-25T12:33:39;99695.56;;;14.02;100.00
43436;BME280;36399;51.444;-2.018;2023-03-25T12:50:22;99714.19;;;14.56;100.00
43436;BME280;36399;51.444;-2.018;2023-03-25T12:53:27;99722.25;;;14.48;100.00
43436;BME280;36399;51.444;-2.018;2023-03-25T12:56:40;99712.59;;;15.01;100.00
43436;BME280;36399;51.444;-2.018;2023-03-25T13:05:02;99710.13;;;14.32;100.00
43436;BME280;36399;51.444;-2.018;2023-03-25T13:07:27;99723.28;;;14.95;100.00
43436;BME280;36399;51.444;-2.018;2023-03-25T13:12:40;99713.22;;;15.17;100.00
43436;BME280;36399;51.444;-2.018;2023-03-25T13:15:25;99722.00;;;14.67;100.00
43436;BME280;36399;51.444;-2.018;2023-03-25T13:17:59;99719.41;;;14.62;100.00
43436;BME280;36399;51.444;-2.018;2023-03-25T13:20:31;99745.00;;;14.59;100.00
43436;BME280;36399;51.444;-2.018;2023-03-25T13:23:03;99719.16;;;14.16;100.00
43436;BME280;36399;51.444;-2.018;2023-03-25T13:28:18;99742.94;;;14.16;100.00
43436;BME280;36399;51.444;-2.018;2023-03-25T13:30:48;99732.81;;;14.48;100.00
43436;BME280;36399;51.444;-2.018;2023-03-25T13:33:29;99735.53;;;14.99;100.00
43436;BME280;36399;51.444;-2.018;2023-03-25T13:36:08;99739.75;;;14.56;100.00
43436;BME280;36399;51.444;-2.018;2023-03-25T13:38:46;99747.69;;;15.12;100.00
43436;BME280;36399;51.444;-2.018;2023-03-25T13:41:37;99744.72;;;14.77;100.00
43436;BME280;36399;51.444;-2.018;2023-03-25T13:44:13;99733.69;;;15.54;100.00
43436;BME280;36399;51.444;-2.018;2023-03-25T13:47:40;99746.41;;;15.33;100.00
43436;BME280;36399;51.444;-2.018;2023-03-25T13:49:45;99743.03;;;14.73;100.00
43436;BME280;36399;51.444;-2.018;2023-03-25T13:52:14;99757.22;;;14.66;100.00
43436;BME280;36399;51.444;-2.018;2023-03-25T13:54:44;99764.31;;;14.64;100.00
43436;BME280;36399;51.444;-2.018;2023-03-25T14:03:17;99743.22;;;13.90;100.00
43436;BME280;36399;51.444;-2.018;2023-03-25T14:11:27;99746.03;;;13.76;100.00
43436;BME280;36399;51.444;-2.018;2023-03-25T14:14:14;99752.44;;;13.52;100.00
43436;BME280;36399;51.444;-2.018;2023-03-25T14:16:53;99758.94;;;13.19;100.00
43436;BME280;36399;51.444;-2.018;2023-03-25T14:19:31;99773.81;;;13.23;100.00
43436;BME280;36399;51.444;-2.018;2023-03-25T14:21:58;99770.50;;;12.95;100.00
43436;BME280;36399;51.444;-2.018;2023-03-25T14:24:32;99767.66;;;13.24;100.00
43436;BME280;36399;51.444;-2.018;2023-03-25T14:27:05;99775.75;;;13.02;100.00
43436;BME280;36399;51.444;-2.018;2023-03-25T14:29:42;99781.63;;;13.36;100.00
43436;BME280;36399;51.444;-2.018;2023-03-25T14:34:43;99781.63;;;13.36;100.00
43436;BME280;36399;51.444;-2.018;2023-03-25T14:39:46;99775.22;;;13.61;100.00
43436;BME280;36399;51.444;-2.018;2023-03-25T14:42:23;99783.34;;;13.40;100.00
43436;BME280;36399;51.444;-2.018;2023-03-25T14:44:51;99768.59;;;13.16;100.00
43436;BME280;36399;51.444;-2.018;2023-03-25T14:52:49;99775.31;;;13.50;100.00
43436;BME280;36399;51.444;-2.018;2023-03-25T14:55:20;99774.56;;;13.38;100.00
43436;BME280;36399;51.444;-2.018;2023-03-25T14:57:47;99785.97;;;13.38;100.00
43436;BME280;36399;51.444;-2.018;2023-03-25T15:00:22;99790.31;;;13.44;100.00
43436;BME280;36399;51.444;-2.018;2023-03-25T15:02:58;99768.09;;;13.69;100.00
43436;BME280;36399;51.444;-2.018;2023-03-25T15:05:28;99780.31;;;13.79;100.00
43436;BME280;36399;51.444;-2.018;2023-03-25T15:07:59;99782.69;;;14.01;100.00
43436;BME280;36399;51.444;-2.018;2023-03-25T15:10:38;99784.44;;;14.72;100.00
43436;BME280;36399;51.444;-2.018;2023-03-25T15:13:09;99780.75;;;14.81;100.00
43436;BME280;36399;51.444;-2.018;2023-03-25T15:21:30;99791.09;;;13.56;100.00
43436;BME280;36399;51.444;-2.018;2023-03-25T15:24:09;99784.25;;;13.34;100.00
43436;BME280;36399;51.444;-2.018;2023-03-25T15:26:44;99790.31;;;13.44;100.00
43436;BME280;36399;51.444;-2.018;2023-03-25T15:35:28;99780.38;;;12.64;100.00
43436;BME280;36399;51.444;-2.018;2023-03-25T15:54:56;99756.53;;;12.84;100.00
43436;BME280;36399;51.444;-2.018;2023-03-25T15:57:33;99759.13;;;12.89;100.00
43436;BME280;36399;51.444;-2.018;2023-03-25T16:02:37;99753.94;;;12.80;100.00
43436;BME280;36399;51.444;-2.018;2023-03-25T16:05:04;99747.13;;;12.53;100.00
43436;BME280;36399;51.444;-2.018;2023-03-25T16:07:32;99745.09;;;12.87;100.00
43436;BME280;36399;51.444;-2.018;2023-03-25T16:10:15;99752.25;;;12.71;100.00
43436;BME280;36399;51.444;-2.018;2023-03-25T16:12:48;99749.75;;;12.54;100.00
43436;BME280;36399;51.444;-2.018;2023-03-25T16:15:24;99748.97;;;12.32;100.00
43436;BME280;36399;51.444;-2.018;2023-03-25T16:17:52;99749.88;;;12.27;100.00
43436;BME280;36399;51.444;-2.018;2023-03-25T16:20:22;99751.69;;;12.20;100.00
43436;BME280;36399;51.444;-2.018;2023-03-25T16:22:52;99752.56;;;12.21;100.00
43436;BME280;36399;51.444;-2.018;2023-03-25T16:25:21;99743.81;;;12.16;100.00
43436;BME280;36399;51.444;-2.018;2023-03-25T16:27:54;99748.28;;;11.97;100.00